Weather at Al Qusayr Air Base

Public forecast

Using degrees Celsius for public forecast. Weather courtesy of forecast.io.

Closest aviation weather report (METAR) to Al Qusayr Air Base

Closest report is Bassel Al-Assad International Airport, 58.6 nm (108.6 km) NNW. Retrieved 2022/01/19 07:00 UTC (41 minutes ago):

OSLK 190700Z 17004KT 8000 FEW026 SCT030 BKN100 07/04 Q1013

Closest aviation forecast (TAF) to Al Qusayr Air Base

Forecast is more than 12 hours old.

Closest forecast is Bassel Al-Assad International Airport, 58.6 nm (108.6 km) NNW. Retrieved 2022/01/18 06:36 UTC (1 day ago):

TAF TAF OSLK 180500Z 1806/1906 11010G25KT 9999 FEW026TCU SCT030 BKN090 BECMG 1812/1814 24020G35KT 3000TS SHRA BKN020CB BKN030 OVC090